<?xml version="1.0" encoding="UTF-8" standalone="no" ?>
<gpx xmlns="http://www.topografix.com/GPX/1/1" xmlns:xsi="http://www.w3.org/2001/XMLSchema-instance" xsi:schemaLocation="http://www.topografix.com/GPX/1/1 http://www.topografix.com/GPX/1/1/gpx.xsd" version="1.1" creator="VisuGPX - https://www.visugpx.com">
  <metadata>
    <name>13034189-23 ROUGE _ Découverte de la Cèze</name>
  </metadata>
  <trk>
    <name><![CDATA[13034189-23 ROUGE _ Découverte de la Cèze]]></name>
    <trkseg>
      <trkpt lat="44.23912" lon="4.45783">
        <ele>116</ele>
        <time>2021-09-06T08:23:04Z</time>
      </trkpt>
      <trkpt lat="44.23933" lon="4.45758">
        <ele>117</ele>
        <time>2021-09-06T08:23:10Z</time>
      </trkpt>
      <trkpt lat="44.23993" lon="4.45715">
        <ele>119</ele>
        <time>2021-09-06T08:23:26Z</time>
      </trkpt>
      <trkpt lat="44.24022" lon="4.4572">
        <ele>117</ele>
        <time>2021-09-06T08:23:33Z</time>
      </trkpt>
      <trkpt lat="44.24033" lon="4.45689">
        <ele>118</ele>
        <time>2021-09-06T08:23:39Z</time>
      </trkpt>
      <trkpt lat="44.2404" lon="4.45648">
        <ele>119</ele>
        <time>2021-09-06T08:23:46Z</time>
      </trkpt>
      <trkpt lat="44.24066" lon="4.45634">
        <ele>117</ele>
        <time>2021-09-06T08:23:52Z</time>
      </trkpt>
      <trkpt lat="44.24078" lon="4.45526">
        <ele>116</ele>
        <time>2021-09-06T08:24:11Z</time>
      </trkpt>
      <trkpt lat="44.24084" lon="4.45487">
        <ele>115</ele>
        <time>2021-09-06T08:24:17Z</time>
      </trkpt>
      <trkpt lat="44.2408" lon="4.45403">
        <ele>113</ele>
        <time>2021-09-06T08:24:31Z</time>
      </trkpt>
      <trkpt lat="44.2409" lon="4.45354">
        <ele>111</ele>
        <time>2021-09-06T08:24:40Z</time>
      </trkpt>
      <trkpt lat="44.24132" lon="4.45303">
        <ele>102</ele>
        <time>2021-09-06T08:24:53Z</time>
      </trkpt>
      <trkpt lat="44.24079" lon="4.45238">
        <ele>101</ele>
        <time>2021-09-06T08:25:09Z</time>
      </trkpt>
      <trkpt lat="44.24077" lon="4.45221">
        <ele>99</ele>
        <time>2021-09-06T08:25:12Z</time>
      </trkpt>
      <trkpt lat="44.24162" lon="4.45274">
        <ele>94</ele>
        <time>2021-09-06T08:25:34Z</time>
      </trkpt>
      <trkpt lat="44.24225" lon="4.45204">
        <ele>89</ele>
        <time>2021-09-06T08:25:53Z</time>
      </trkpt>
      <trkpt lat="44.24259" lon="4.45174">
        <ele>88</ele>
        <time>2021-09-06T08:26:02Z</time>
      </trkpt>
      <trkpt lat="44.24362" lon="4.45127">
        <ele>92</ele>
        <time>2021-09-06T08:26:28Z</time>
      </trkpt>
      <trkpt lat="44.24382" lon="4.45108">
        <ele>92</ele>
        <time>2021-09-06T08:26:33Z</time>
      </trkpt>
      <trkpt lat="44.24495" lon="4.45095">
        <ele>95</ele>
        <time>2021-09-06T08:27:00Z</time>
      </trkpt>
      <trkpt lat="44.24588" lon="4.45082">
        <ele>93</ele>
        <time>2021-09-06T08:27:21Z</time>
      </trkpt>
      <trkpt lat="44.24624" lon="4.45072">
        <ele>92</ele>
        <time>2021-09-06T08:27:30Z</time>
      </trkpt>
      <trkpt lat="44.24742" lon="4.45017">
        <ele>93</ele>
        <time>2021-09-06T08:27:59Z</time>
      </trkpt>
      <trkpt lat="44.24825" lon="4.4498">
        <ele>98</ele>
        <time>2021-09-06T08:28:19Z</time>
      </trkpt>
      <trkpt lat="44.24795" lon="4.44836">
        <ele>94</ele>
        <time>2021-09-06T08:28:45Z</time>
      </trkpt>
      <trkpt lat="44.24783" lon="4.44832">
        <ele>94</ele>
        <time>2021-09-06T08:28:47Z</time>
      </trkpt>
      <trkpt lat="44.2472" lon="4.44831">
        <ele>92</ele>
        <time>2021-09-06T08:29:02Z</time>
      </trkpt>
      <trkpt lat="44.24682" lon="4.44808">
        <ele>91</ele>
        <time>2021-09-06T08:29:12Z</time>
      </trkpt>
      <trkpt lat="44.24678" lon="4.44795">
        <ele>91</ele>
        <time>2021-09-06T08:29:14Z</time>
      </trkpt>
      <trkpt lat="44.24696" lon="4.4474">
        <ele>98</ele>
        <time>2021-09-06T08:29:24Z</time>
      </trkpt>
      <trkpt lat="44.24745" lon="4.44668">
        <ele>110</ele>
        <time>2021-09-06T08:29:41Z</time>
      </trkpt>
      <trkpt lat="44.24761" lon="4.44617">
        <ele>117</ele>
        <time>2021-09-06T08:29:50Z</time>
      </trkpt>
      <trkpt lat="44.24783" lon="4.44578">
        <ele>122</ele>
        <time>2021-09-06T08:29:59Z</time>
      </trkpt>
      <trkpt lat="44.2482" lon="4.44556">
        <ele>126</ele>
        <time>2021-09-06T08:30:08Z</time>
      </trkpt>
      <trkpt lat="44.24831" lon="4.44531">
        <ele>128</ele>
        <time>2021-09-06T08:30:13Z</time>
      </trkpt>
      <trkpt lat="44.24871" lon="4.44485">
        <ele>126</ele>
        <time>2021-09-06T08:30:25Z</time>
      </trkpt>
      <trkpt lat="44.2491" lon="4.44304">
        <ele>144</ele>
        <time>2021-09-06T08:30:57Z</time>
      </trkpt>
      <trkpt lat="44.24932" lon="4.44204">
        <ele>150</ele>
        <time>2021-09-06T08:31:14Z</time>
      </trkpt>
      <trkpt lat="44.24935" lon="4.44115">
        <ele>158</ele>
        <time>2021-09-06T08:31:29Z</time>
      </trkpt>
      <trkpt lat="44.24968" lon="4.44082">
        <ele>160</ele>
        <time>2021-09-06T08:31:38Z</time>
      </trkpt>
      <trkpt lat="44.25028" lon="4.43955">
        <ele>167</ele>
        <time>2021-09-06T08:32:04Z</time>
      </trkpt>
      <trkpt lat="44.25102" lon="4.43803">
        <ele>178</ele>
        <time>2021-09-06T08:32:35Z</time>
      </trkpt>
      <trkpt lat="44.25106" lon="4.4372">
        <ele>183</ele>
        <time>2021-09-06T08:32:49Z</time>
      </trkpt>
      <trkpt lat="44.25132" lon="4.43645">
        <ele>190</ele>
        <time>2021-09-06T08:33:02Z</time>
      </trkpt>
      <trkpt lat="44.25131" lon="4.43568">
        <ele>193</ele>
        <time>2021-09-06T08:33:15Z</time>
      </trkpt>
      <trkpt lat="44.2513" lon="4.43494">
        <ele>194</ele>
        <time>2021-09-06T08:33:28Z</time>
      </trkpt>
      <trkpt lat="44.25136" lon="4.43409">
        <ele>196</ele>
        <time>2021-09-06T08:33:42Z</time>
      </trkpt>
      <trkpt lat="44.25143" lon="4.43312">
        <ele>198</ele>
        <time>2021-09-06T08:33:58Z</time>
      </trkpt>
      <trkpt lat="44.25132" lon="4.43265">
        <ele>198</ele>
        <time>2021-09-06T08:34:07Z</time>
      </trkpt>
      <trkpt lat="44.2509" lon="4.43167">
        <ele>198</ele>
        <time>2021-09-06T08:34:26Z</time>
      </trkpt>
      <trkpt lat="44.25094" lon="4.43085">
        <ele>196</ele>
        <time>2021-09-06T08:34:39Z</time>
      </trkpt>
      <trkpt lat="44.25131" lon="4.42996">
        <ele>196</ele>
        <time>2021-09-06T08:34:57Z</time>
      </trkpt>
      <trkpt lat="44.25194" lon="4.42944">
        <ele>200</ele>
        <time>2021-09-06T08:35:14Z</time>
      </trkpt>
      <trkpt lat="44.25223" lon="4.42937">
        <ele>201</ele>
        <time>2021-09-06T08:35:21Z</time>
      </trkpt>
      <trkpt lat="44.25283" lon="4.42914">
        <ele>201</ele>
        <time>2021-09-06T08:35:35Z</time>
      </trkpt>
      <trkpt lat="44.25267" lon="4.42823">
        <ele>201</ele>
        <time>2021-09-06T08:35:51Z</time>
      </trkpt>
      <trkpt lat="44.25261" lon="4.42781">
        <ele>198</ele>
        <time>2021-09-06T08:35:58Z</time>
      </trkpt>
      <trkpt lat="44.25234" lon="4.42738">
        <ele>195</ele>
        <time>2021-09-06T08:36:08Z</time>
      </trkpt>
      <trkpt lat="44.25211" lon="4.42645">
        <ele>190</ele>
        <time>2021-09-06T08:36:24Z</time>
      </trkpt>
      <trkpt lat="44.25202" lon="4.42564">
        <ele>189</ele>
        <time>2021-09-06T08:36:38Z</time>
      </trkpt>
      <trkpt lat="44.25188" lon="4.42522">
        <ele>189</ele>
        <time>2021-09-06T08:36:45Z</time>
      </trkpt>
      <trkpt lat="44.25171" lon="4.42456">
        <ele>189</ele>
        <time>2021-09-06T08:36:57Z</time>
      </trkpt>
      <trkpt lat="44.25139" lon="4.42393">
        <ele>189</ele>
        <time>2021-09-06T08:37:10Z</time>
      </trkpt>
      <trkpt lat="44.25124" lon="4.42355">
        <ele>189</ele>
        <time>2021-09-06T08:37:17Z</time>
      </trkpt>
      <trkpt lat="44.2512" lon="4.42295">
        <ele>190</ele>
        <time>2021-09-06T08:37:27Z</time>
      </trkpt>
      <trkpt lat="44.25118" lon="4.42286">
        <ele>190</ele>
        <time>2021-09-06T08:37:29Z</time>
      </trkpt>
      <trkpt lat="44.2513" lon="4.42296">
        <ele>189</ele>
        <time>2021-09-06T08:37:32Z</time>
      </trkpt>
      <trkpt lat="44.25157" lon="4.42278">
        <ele>187</ele>
        <time>2021-09-06T08:37:39Z</time>
      </trkpt>
      <trkpt lat="44.2519" lon="4.42301">
        <ele>183</ele>
        <time>2021-09-06T08:37:48Z</time>
      </trkpt>
      <trkpt lat="44.2522" lon="4.42329">
        <ele>177</ele>
        <time>2021-09-06T08:37:56Z</time>
      </trkpt>
      <trkpt lat="44.25238" lon="4.42332">
        <ele>174</ele>
        <time>2021-09-06T08:38:01Z</time>
      </trkpt>
      <trkpt lat="44.25257" lon="4.42323">
        <ele>172</ele>
        <time>2021-09-06T08:38:05Z</time>
      </trkpt>
      <trkpt lat="44.25291" lon="4.42323">
        <ele>165</ele>
        <time>2021-09-06T08:38:13Z</time>
      </trkpt>
      <trkpt lat="44.253" lon="4.42313">
        <ele>164</ele>
        <time>2021-09-06T08:38:16Z</time>
      </trkpt>
      <trkpt lat="44.25306" lon="4.42274">
        <ele>163</ele>
        <time>2021-09-06T08:38:23Z</time>
      </trkpt>
      <trkpt lat="44.25308" lon="4.4226">
        <ele>163</ele>
        <time>2021-09-06T08:38:25Z</time>
      </trkpt>
      <trkpt lat="44.25342" lon="4.42229">
        <ele>157</ele>
        <time>2021-09-06T08:38:34Z</time>
      </trkpt>
      <trkpt lat="44.25348" lon="4.42203">
        <ele>159</ele>
        <time>2021-09-06T08:38:39Z</time>
      </trkpt>
      <trkpt lat="44.25376" lon="4.42213">
        <ele>155</ele>
        <time>2021-09-06T08:38:46Z</time>
      </trkpt>
      <trkpt lat="44.2541" lon="4.42212">
        <ele>152</ele>
        <time>2021-09-06T08:38:54Z</time>
      </trkpt>
      <trkpt lat="44.25447" lon="4.42215">
        <ele>143</ele>
        <time>2021-09-06T08:39:02Z</time>
      </trkpt>
      <trkpt lat="44.2553" lon="4.42159">
        <ele>125</ele>
        <time>2021-09-06T08:39:24Z</time>
      </trkpt>
      <trkpt lat="44.25545" lon="4.42141">
        <ele>122</ele>
        <time>2021-09-06T08:39:28Z</time>
      </trkpt>
      <trkpt lat="44.25578" lon="4.42126">
        <ele>114</ele>
        <time>2021-09-06T08:39:37Z</time>
      </trkpt>
      <trkpt lat="44.25616" lon="4.4211">
        <ele>111</ele>
        <time>2021-09-06T08:39:46Z</time>
      </trkpt>
      <trkpt lat="44.25612" lon="4.42094">
        <ele>113</ele>
        <time>2021-09-06T08:39:49Z</time>
      </trkpt>
      <trkpt lat="44.25675" lon="4.4207">
        <ele>111</ele>
        <time>2021-09-06T08:40:04Z</time>
      </trkpt>
      <trkpt lat="44.2574" lon="4.42007">
        <ele>115</ele>
        <time>2021-09-06T08:40:22Z</time>
      </trkpt>
      <trkpt lat="44.25794" lon="4.41977">
        <ele>113</ele>
        <time>2021-09-06T08:40:36Z</time>
      </trkpt>
      <trkpt lat="44.25856" lon="4.41906">
        <ele>121</ele>
        <time>2021-09-06T08:40:55Z</time>
      </trkpt>
      <trkpt lat="44.25927" lon="4.41835">
        <ele>115</ele>
        <time>2021-09-06T08:41:15Z</time>
      </trkpt>
      <trkpt lat="44.26013" lon="4.4177">
        <ele>112</ele>
        <time>2021-09-06T08:41:38Z</time>
      </trkpt>
      <trkpt lat="44.26094" lon="4.41727">
        <ele>107</ele>
        <time>2021-09-06T08:41:58Z</time>
      </trkpt>
      <trkpt lat="44.26147" lon="4.41719">
        <ele>105</ele>
        <time>2021-09-06T08:42:11Z</time>
      </trkpt>
      <trkpt lat="44.26193" lon="4.41761">
        <ele>104</ele>
        <time>2021-09-06T08:42:23Z</time>
      </trkpt>
      <trkpt lat="44.26249" lon="4.41824">
        <ele>98</ele>
        <time>2021-09-06T08:42:40Z</time>
      </trkpt>
      <trkpt lat="44.26246" lon="4.41903">
        <ele>92</ele>
        <time>2021-09-06T08:42:54Z</time>
      </trkpt>
      <trkpt lat="44.2623" lon="4.42005">
        <ele>89</ele>
        <time>2021-09-06T08:43:11Z</time>
      </trkpt>
      <trkpt lat="44.26307" lon="4.42028">
        <ele>88</ele>
        <time>2021-09-06T08:43:29Z</time>
      </trkpt>
      <trkpt lat="44.26395" lon="4.42063">
        <ele>90</ele>
        <time>2021-09-06T08:43:51Z</time>
      </trkpt>
      <trkpt lat="44.26425" lon="4.42082">
        <ele>91</ele>
        <time>2021-09-06T08:43:58Z</time>
      </trkpt>
      <trkpt lat="44.2645" lon="4.42178">
        <ele>91</ele>
        <time>2021-09-06T08:44:16Z</time>
      </trkpt>
      <trkpt lat="44.26505" lon="4.42296">
        <ele>92</ele>
        <time>2021-09-06T08:44:39Z</time>
      </trkpt>
      <trkpt lat="44.26554" lon="4.42412">
        <ele>93</ele>
        <time>2021-09-06T08:45:02Z</time>
      </trkpt>
      <trkpt lat="44.26576" lon="4.42493">
        <ele>98</ele>
        <time>2021-09-06T08:45:16Z</time>
      </trkpt>
      <trkpt lat="44.26599" lon="4.42586">
        <ele>101</ele>
        <time>2021-09-06T08:45:33Z</time>
      </trkpt>
      <trkpt lat="44.26665" lon="4.42685">
        <ele>98</ele>
        <time>2021-09-06T08:45:55Z</time>
      </trkpt>
      <trkpt lat="44.26703" lon="4.42764">
        <ele>99</ele>
        <time>2021-09-06T08:46:11Z</time>
      </trkpt>
      <trkpt lat="44.2673" lon="4.42866">
        <ele>107</ele>
        <time>2021-09-06T08:46:29Z</time>
      </trkpt>
      <trkpt lat="44.26748" lon="4.42916">
        <ele>108</ele>
        <time>2021-09-06T08:46:39Z</time>
      </trkpt>
      <trkpt lat="44.26755" lon="4.42946">
        <ele>111</ele>
        <time>2021-09-06T08:46:44Z</time>
      </trkpt>
      <trkpt lat="44.26749" lon="4.42958">
        <ele>113</ele>
        <time>2021-09-06T08:46:46Z</time>
      </trkpt>
      <trkpt lat="44.26751" lon="4.42988">
        <ele>116</ele>
        <time>2021-09-06T08:46:51Z</time>
      </trkpt>
      <trkpt lat="44.26811" lon="4.43022">
        <ele>117</ele>
        <time>2021-09-06T08:47:06Z</time>
      </trkpt>
      <trkpt lat="44.26813" lon="4.43042">
        <ele>119</ele>
        <time>2021-09-06T08:47:10Z</time>
      </trkpt>
      <trkpt lat="44.2676" lon="4.43081">
        <ele>125</ele>
        <time>2021-09-06T08:47:24Z</time>
      </trkpt>
      <trkpt lat="44.26736" lon="4.43107">
        <ele>130</ele>
        <time>2021-09-06T08:47:31Z</time>
      </trkpt>
      <trkpt lat="44.26788" lon="4.43227">
        <ele>142</ele>
        <time>2021-09-06T08:47:54Z</time>
      </trkpt>
      <trkpt lat="44.2679" lon="4.43255">
        <ele>145</ele>
        <time>2021-09-06T08:47:59Z</time>
      </trkpt>
      <trkpt lat="44.26751" lon="4.43228">
        <ele>148</ele>
        <time>2021-09-06T08:48:09Z</time>
      </trkpt>
      <trkpt lat="44.26746" lon="4.43229">
        <ele>149</ele>
        <time>2021-09-06T08:48:10Z</time>
      </trkpt>
      <trkpt lat="44.26747" lon="4.43238">
        <ele>150</ele>
        <time>2021-09-06T08:48:12Z</time>
      </trkpt>
      <trkpt lat="44.26804" lon="4.43394">
        <ele>159</ele>
        <time>2021-09-06T08:48:41Z</time>
      </trkpt>
      <trkpt lat="44.26803" lon="4.43405">
        <ele>160</ele>
        <time>2021-09-06T08:48:43Z</time>
      </trkpt>
      <trkpt lat="44.26795" lon="4.43424">
        <ele>164</ele>
        <time>2021-09-06T08:48:47Z</time>
      </trkpt>
      <trkpt lat="44.26754" lon="4.43478">
        <ele>173</ele>
        <time>2021-09-06T08:49:00Z</time>
      </trkpt>
      <trkpt lat="44.2671" lon="4.43532">
        <ele>177</ele>
        <time>2021-09-06T08:49:14Z</time>
      </trkpt>
      <trkpt lat="44.2666" lon="4.43589">
        <ele>180</ele>
        <time>2021-09-06T08:49:29Z</time>
      </trkpt>
      <trkpt lat="44.26688" lon="4.43611">
        <ele>179</ele>
        <time>2021-09-06T08:49:36Z</time>
      </trkpt>
      <trkpt lat="44.26678" lon="4.43646">
        <ele>179</ele>
        <time>2021-09-06T08:49:43Z</time>
      </trkpt>
      <trkpt lat="44.2666" lon="4.43731">
        <ele>183</ele>
        <time>2021-09-06T08:49:57Z</time>
      </trkpt>
      <trkpt lat="44.26637" lon="4.43839">
        <ele>187</ele>
        <time>2021-09-06T08:50:16Z</time>
      </trkpt>
      <trkpt lat="44.26596" lon="4.43853">
        <ele>188</ele>
        <time>2021-09-06T08:50:26Z</time>
      </trkpt>
      <trkpt lat="44.26573" lon="4.43888">
        <ele>189</ele>
        <time>2021-09-06T08:50:34Z</time>
      </trkpt>
      <trkpt lat="44.2655" lon="4.43925">
        <ele>188</ele>
        <time>2021-09-06T08:50:42Z</time>
      </trkpt>
      <trkpt lat="44.26512" lon="4.43966">
        <ele>186</ele>
        <time>2021-09-06T08:50:53Z</time>
      </trkpt>
      <trkpt lat="44.26501" lon="4.43978">
        <ele>185</ele>
        <time>2021-09-06T08:50:57Z</time>
      </trkpt>
      <trkpt lat="44.26567" lon="4.44028">
        <ele>197</ele>
        <time>2021-09-06T08:51:14Z</time>
      </trkpt>
      <trkpt lat="44.26621" lon="4.43965">
        <ele>198</ele>
        <time>2021-09-06T08:51:31Z</time>
      </trkpt>
      <trkpt lat="44.26649" lon="4.43949">
        <ele>198</ele>
        <time>2021-09-06T08:51:38Z</time>
      </trkpt>
      <trkpt lat="44.26708" lon="4.4397">
        <ele>204</ele>
        <time>2021-09-06T08:51:52Z</time>
      </trkpt>
      <trkpt lat="44.26736" lon="4.44004">
        <ele>211</ele>
        <time>2021-09-06T08:52:01Z</time>
      </trkpt>
      <trkpt lat="44.26763" lon="4.44022">
        <ele>214</ele>
        <time>2021-09-06T08:52:08Z</time>
      </trkpt>
      <trkpt lat="44.26806" lon="4.44036">
        <ele>212</ele>
        <time>2021-09-06T08:52:18Z</time>
      </trkpt>
      <trkpt lat="44.26829" lon="4.44055">
        <ele>213</ele>
        <time>2021-09-06T08:52:24Z</time>
      </trkpt>
      <trkpt lat="44.2684" lon="4.44087">
        <ele>218</ele>
        <time>2021-09-06T08:52:30Z</time>
      </trkpt>
      <trkpt lat="44.26838" lon="4.44111">
        <ele>219</ele>
        <time>2021-09-06T08:52:34Z</time>
      </trkpt>
      <trkpt lat="44.26805" lon="4.4417">
        <ele>228</ele>
        <time>2021-09-06T08:52:47Z</time>
      </trkpt>
      <trkpt lat="44.26765" lon="4.44229">
        <ele>235</ele>
        <time>2021-09-06T08:53:00Z</time>
      </trkpt>
      <trkpt lat="44.26739" lon="4.44309">
        <ele>242</ele>
        <time>2021-09-06T08:53:15Z</time>
      </trkpt>
      <trkpt lat="44.26696" lon="4.44307">
        <ele>240</ele>
        <time>2021-09-06T08:53:25Z</time>
      </trkpt>
      <trkpt lat="44.26692" lon="4.44272">
        <ele>237</ele>
        <time>2021-09-06T08:53:31Z</time>
      </trkpt>
      <trkpt lat="44.26679" lon="4.44271">
        <ele>236</ele>
        <time>2021-09-06T08:53:34Z</time>
      </trkpt>
      <trkpt lat="44.26536" lon="4.44457">
        <ele>215</ele>
        <time>2021-09-06T08:54:20Z</time>
      </trkpt>
      <trkpt lat="44.26523" lon="4.4447">
        <ele>212</ele>
        <time>2021-09-06T08:54:23Z</time>
      </trkpt>
      <trkpt lat="44.26507" lon="4.44471">
        <ele>207</ele>
        <time>2021-09-06T08:54:27Z</time>
      </trkpt>
      <trkpt lat="44.265" lon="4.4446">
        <ele>204</ele>
        <time>2021-09-06T08:54:29Z</time>
      </trkpt>
      <trkpt lat="44.2648" lon="4.44411">
        <ele>198</ele>
        <time>2021-09-06T08:54:39Z</time>
      </trkpt>
      <trkpt lat="44.26443" lon="4.44392">
        <ele>190</ele>
        <time>2021-09-06T08:54:48Z</time>
      </trkpt>
      <trkpt lat="44.26415" lon="4.44315">
        <ele>184</ele>
        <time>2021-09-06T08:55:03Z</time>
      </trkpt>
      <trkpt lat="44.26388" lon="4.44255">
        <ele>178</ele>
        <time>2021-09-06T08:55:14Z</time>
      </trkpt>
      <trkpt lat="44.2635" lon="4.44234">
        <ele>175</ele>
        <time>2021-09-06T08:55:24Z</time>
      </trkpt>
      <trkpt lat="44.26317" lon="4.44213">
        <ele>174</ele>
        <time>2021-09-06T08:55:32Z</time>
      </trkpt>
      <trkpt lat="44.26306" lon="4.44204">
        <ele>173</ele>
        <time>2021-09-06T08:55:35Z</time>
      </trkpt>
      <trkpt lat="44.26299" lon="4.44306">
        <ele>169</ele>
        <time>2021-09-06T08:55:53Z</time>
      </trkpt>
      <trkpt lat="44.26286" lon="4.44382">
        <ele>168</ele>
        <time>2021-09-06T08:56:06Z</time>
      </trkpt>
      <trkpt lat="44.26277" lon="4.44451">
        <ele>169</ele>
        <time>2021-09-06T08:56:17Z</time>
      </trkpt>
      <trkpt lat="44.26294" lon="4.44498">
        <ele>172</ele>
        <time>2021-09-06T08:56:26Z</time>
      </trkpt>
      <trkpt lat="44.26284" lon="4.44567">
        <ele>176</ele>
        <time>2021-09-06T08:56:38Z</time>
      </trkpt>
      <trkpt lat="44.2625" lon="4.44626">
        <ele>174</ele>
        <time>2021-09-06T08:56:51Z</time>
      </trkpt>
      <trkpt lat="44.26237" lon="4.44636">
        <ele>171</ele>
        <time>2021-09-06T08:56:54Z</time>
      </trkpt>
      <trkpt lat="44.26235" lon="4.44671">
        <ele>171</ele>
        <time>2021-09-06T08:57:00Z</time>
      </trkpt>
      <trkpt lat="44.26243" lon="4.44723">
        <ele>172</ele>
        <time>2021-09-06T08:57:09Z</time>
      </trkpt>
      <trkpt lat="44.26251" lon="4.44804">
        <ele>169</ele>
        <time>2021-09-06T08:57:22Z</time>
      </trkpt>
      <trkpt lat="44.26267" lon="4.44832">
        <ele>169</ele>
        <time>2021-09-06T08:57:28Z</time>
      </trkpt>
      <trkpt lat="44.26319" lon="4.44892">
        <ele>171</ele>
        <time>2021-09-06T08:57:44Z</time>
      </trkpt>
      <trkpt lat="44.26326" lon="4.44899">
        <ele>171</ele>
        <time>2021-09-06T08:57:46Z</time>
      </trkpt>
      <trkpt lat="44.26326" lon="4.44909">
        <ele>170</ele>
        <time>2021-09-06T08:57:48Z</time>
      </trkpt>
      <trkpt lat="44.26302" lon="4.44901">
        <ele>168</ele>
        <time>2021-09-06T08:57:54Z</time>
      </trkpt>
      <trkpt lat="44.26247" lon="4.44876">
        <ele>163</ele>
        <time>2021-09-06T08:58:07Z</time>
      </trkpt>
      <trkpt lat="44.26234" lon="4.44879">
        <ele>163</ele>
        <time>2021-09-06T08:58:10Z</time>
      </trkpt>
      <trkpt lat="44.26221" lon="4.44897">
        <ele>162</ele>
        <time>2021-09-06T08:58:15Z</time>
      </trkpt>
      <trkpt lat="44.2621" lon="4.44936">
        <ele>163</ele>
        <time>2021-09-06T08:58:22Z</time>
      </trkpt>
      <trkpt lat="44.26202" lon="4.4494">
        <ele>163</ele>
        <time>2021-09-06T08:58:24Z</time>
      </trkpt>
      <trkpt lat="44.26184" lon="4.44894">
        <ele>161</ele>
        <time>2021-09-06T08:58:32Z</time>
      </trkpt>
      <trkpt lat="44.26178" lon="4.44895">
        <ele>161</ele>
        <time>2021-09-06T08:58:34Z</time>
      </trkpt>
      <trkpt lat="44.26167" lon="4.44992">
        <ele>166</ele>
        <time>2021-09-06T08:58:50Z</time>
      </trkpt>
      <trkpt lat="44.26115" lon="4.45042">
        <ele>165</ele>
        <time>2021-09-06T08:59:05Z</time>
      </trkpt>
      <trkpt lat="44.26119" lon="4.45094">
        <ele>167</ele>
        <time>2021-09-06T08:59:14Z</time>
      </trkpt>
      <trkpt lat="44.26122" lon="4.45146">
        <ele>168</ele>
        <time>2021-09-06T08:59:22Z</time>
      </trkpt>
      <trkpt lat="44.26147" lon="4.4519">
        <ele>175</ele>
        <time>2021-09-06T08:59:32Z</time>
      </trkpt>
      <trkpt lat="44.26166" lon="4.45245">
        <ele>184</ele>
        <time>2021-09-06T08:59:42Z</time>
      </trkpt>
      <trkpt lat="44.26168" lon="4.45302">
        <ele>185</ele>
        <time>2021-09-06T08:59:51Z</time>
      </trkpt>
      <trkpt lat="44.26166" lon="4.4533">
        <ele>185</ele>
        <time>2021-09-06T08:59:56Z</time>
      </trkpt>
      <trkpt lat="44.26155" lon="4.45354">
        <ele>181</ele>
        <time>2021-09-06T09:00:01Z</time>
      </trkpt>
      <trkpt lat="44.26167" lon="4.45375">
        <ele>182</ele>
        <time>2021-09-06T09:00:05Z</time>
      </trkpt>
      <trkpt lat="44.26174" lon="4.45416">
        <ele>180</ele>
        <time>2021-09-06T09:00:13Z</time>
      </trkpt>
      <trkpt lat="44.26217" lon="4.4555">
        <ele>186</ele>
        <time>2021-09-06T09:00:37Z</time>
      </trkpt>
      <trkpt lat="44.26217" lon="4.4564">
        <ele>186</ele>
        <time>2021-09-06T09:00:52Z</time>
      </trkpt>
      <trkpt lat="44.26205" lon="4.45656">
        <ele>185</ele>
        <time>2021-09-06T09:00:56Z</time>
      </trkpt>
      <trkpt lat="44.26169" lon="4.4566">
        <ele>183</ele>
        <time>2021-09-06T09:01:04Z</time>
      </trkpt>
      <trkpt lat="44.26126" lon="4.45634">
        <ele>187</ele>
        <time>2021-09-06T09:01:15Z</time>
      </trkpt>
      <trkpt lat="44.26093" lon="4.45589">
        <ele>187</ele>
        <time>2021-09-06T09:01:26Z</time>
      </trkpt>
      <trkpt lat="44.26077" lon="4.45579">
        <ele>187</ele>
        <time>2021-09-06T09:01:30Z</time>
      </trkpt>
      <trkpt lat="44.26006" lon="4.45601">
        <ele>197</ele>
        <time>2021-09-06T09:01:47Z</time>
      </trkpt>
      <trkpt lat="44.25962" lon="4.45611">
        <ele>202</ele>
        <time>2021-09-06T09:01:58Z</time>
      </trkpt>
      <trkpt lat="44.25933" lon="4.45627">
        <ele>206</ele>
        <time>2021-09-06T09:02:05Z</time>
      </trkpt>
      <trkpt lat="44.25913" lon="4.45652">
        <ele>208</ele>
        <time>2021-09-06T09:02:11Z</time>
      </trkpt>
      <trkpt lat="44.25904" lon="4.4567">
        <ele>210</ele>
        <time>2021-09-06T09:02:15Z</time>
      </trkpt>
      <trkpt lat="44.25899" lon="4.45695">
        <ele>212</ele>
        <time>2021-09-06T09:02:19Z</time>
      </trkpt>
      <trkpt lat="44.25879" lon="4.4572">
        <ele>214</ele>
        <time>2021-09-06T09:02:25Z</time>
      </trkpt>
      <trkpt lat="44.25866" lon="4.45731">
        <ele>216</ele>
        <time>2021-09-06T09:02:29Z</time>
      </trkpt>
      <trkpt lat="44.25844" lon="4.45738">
        <ele>218</ele>
        <time>2021-09-06T09:02:34Z</time>
      </trkpt>
      <trkpt lat="44.25824" lon="4.45757">
        <ele>220</ele>
        <time>2021-09-06T09:02:40Z</time>
      </trkpt>
      <trkpt lat="44.2579" lon="4.45745">
        <ele>220</ele>
        <time>2021-09-06T09:02:48Z</time>
      </trkpt>
      <trkpt lat="44.2578" lon="4.45746">
        <ele>220</ele>
        <time>2021-09-06T09:02:50Z</time>
      </trkpt>
      <trkpt lat="44.25766" lon="4.45775">
        <ele>223</ele>
        <time>2021-09-06T09:02:56Z</time>
      </trkpt>
      <trkpt lat="44.25724" lon="4.45808">
        <ele>227</ele>
        <time>2021-09-06T09:03:08Z</time>
      </trkpt>
      <trkpt lat="44.25671" lon="4.45853">
        <ele>233</ele>
        <time>2021-09-06T09:03:22Z</time>
      </trkpt>
      <trkpt lat="44.25624" lon="4.45886">
        <ele>241</ele>
        <time>2021-09-06T09:03:34Z</time>
      </trkpt>
      <trkpt lat="44.25587" lon="4.45907">
        <ele>246</ele>
        <time>2021-09-06T09:03:44Z</time>
      </trkpt>
      <trkpt lat="44.25552" lon="4.45893">
        <ele>247</ele>
        <time>2021-09-06T09:03:52Z</time>
      </trkpt>
      <trkpt lat="44.25501" lon="4.46018">
        <ele>254</ele>
        <time>2021-09-06T09:04:16Z</time>
      </trkpt>
      <trkpt lat="44.2548" lon="4.46079">
        <ele>255</ele>
        <time>2021-09-06T09:04:28Z</time>
      </trkpt>
      <trkpt lat="44.25468" lon="4.46129">
        <ele>256</ele>
        <time>2021-09-06T09:04:36Z</time>
      </trkpt>
      <trkpt lat="44.25458" lon="4.46159">
        <ele>257</ele>
        <time>2021-09-06T09:04:42Z</time>
      </trkpt>
      <trkpt lat="44.2546" lon="4.46202">
        <ele>257</ele>
        <time>2021-09-06T09:04:49Z</time>
      </trkpt>
      <trkpt lat="44.25442" lon="4.46284">
        <ele>258</ele>
        <time>2021-09-06T09:05:03Z</time>
      </trkpt>
      <trkpt lat="44.25376" lon="4.46326">
        <ele>261</ele>
        <time>2021-09-06T09:05:20Z</time>
      </trkpt>
      <trkpt lat="44.25345" lon="4.46347">
        <ele>264</ele>
        <time>2021-09-06T09:05:28Z</time>
      </trkpt>
      <trkpt lat="44.25328" lon="4.46369">
        <ele>267</ele>
        <time>2021-09-06T09:05:34Z</time>
      </trkpt>
      <trkpt lat="44.25314" lon="4.46379">
        <ele>268</ele>
        <time>2021-09-06T09:05:38Z</time>
      </trkpt>
      <trkpt lat="44.25305" lon="4.46416">
        <ele>271</ele>
        <time>2021-09-06T09:05:44Z</time>
      </trkpt>
      <trkpt lat="44.25272" lon="4.46417">
        <ele>273</ele>
        <time>2021-09-06T09:05:52Z</time>
      </trkpt>
      <trkpt lat="44.2526" lon="4.46494">
        <ele>274</ele>
        <time>2021-09-06T09:06:05Z</time>
      </trkpt>
      <trkpt lat="44.25251" lon="4.46517">
        <ele>273</ele>
        <time>2021-09-06T09:06:09Z</time>
      </trkpt>
      <trkpt lat="44.25225" lon="4.46546">
        <ele>273</ele>
        <time>2021-09-06T09:06:17Z</time>
      </trkpt>
      <trkpt lat="44.25214" lon="4.46598">
        <ele>271</ele>
        <time>2021-09-06T09:06:26Z</time>
      </trkpt>
      <trkpt lat="44.25209" lon="4.46655">
        <ele>270</ele>
        <time>2021-09-06T09:06:36Z</time>
      </trkpt>
      <trkpt lat="44.25212" lon="4.46763">
        <ele>267</ele>
        <time>2021-09-06T09:06:54Z</time>
      </trkpt>
      <trkpt lat="44.25299" lon="4.4677">
        <ele>268</ele>
        <time>2021-09-06T09:07:14Z</time>
      </trkpt>
      <trkpt lat="44.25323" lon="4.46919">
        <ele>258</ele>
        <time>2021-09-06T09:07:40Z</time>
      </trkpt>
      <trkpt lat="44.25376" lon="4.47002">
        <ele>252</ele>
        <time>2021-09-06T09:07:58Z</time>
      </trkpt>
      <trkpt lat="44.25397" lon="4.47036">
        <ele>249</ele>
        <time>2021-09-06T09:08:06Z</time>
      </trkpt>
      <trkpt lat="44.25439" lon="4.47057">
        <ele>246</ele>
        <time>2021-09-06T09:08:16Z</time>
      </trkpt>
      <trkpt lat="44.25469" lon="4.47087">
        <ele>242</ele>
        <time>2021-09-06T09:08:25Z</time>
      </trkpt>
      <trkpt lat="44.25509" lon="4.47151">
        <ele>234</ele>
        <time>2021-09-06T09:08:39Z</time>
      </trkpt>
      <trkpt lat="44.25567" lon="4.47225">
        <ele>226</ele>
        <time>2021-09-06T09:08:57Z</time>
      </trkpt>
      <trkpt lat="44.25582" lon="4.47236">
        <ele>225</ele>
        <time>2021-09-06T09:09:01Z</time>
      </trkpt>
      <trkpt lat="44.25608" lon="4.4724">
        <ele>225</ele>
        <time>2021-09-06T09:09:08Z</time>
      </trkpt>
      <trkpt lat="44.2561" lon="4.47256">
        <ele>223</ele>
        <time>2021-09-06T09:09:10Z</time>
      </trkpt>
      <trkpt lat="44.25601" lon="4.47299">
        <ele>221</ele>
        <time>2021-09-06T09:09:18Z</time>
      </trkpt>
      <trkpt lat="44.25651" lon="4.47312">
        <ele>220</ele>
        <time>2021-09-06T09:09:30Z</time>
      </trkpt>
      <trkpt lat="44.25678" lon="4.4733">
        <ele>220</ele>
        <time>2021-09-06T09:09:37Z</time>
      </trkpt>
      <trkpt lat="44.2571" lon="4.4737">
        <ele>226</ele>
        <time>2021-09-06T09:09:47Z</time>
      </trkpt>
      <trkpt lat="44.25709" lon="4.47397">
        <ele>228</ele>
        <time>2021-09-06T09:09:51Z</time>
      </trkpt>
      <trkpt lat="44.257" lon="4.47425">
        <ele>230</ele>
        <time>2021-09-06T09:09:56Z</time>
      </trkpt>
      <trkpt lat="44.25708" lon="4.47455">
        <ele>234</ele>
        <time>2021-09-06T09:10:02Z</time>
      </trkpt>
      <trkpt lat="44.25729" lon="4.47497">
        <ele>238</ele>
        <time>2021-09-06T09:10:10Z</time>
      </trkpt>
      <trkpt lat="44.25729" lon="4.47509">
        <ele>239</ele>
        <time>2021-09-06T09:10:12Z</time>
      </trkpt>
      <trkpt lat="44.25681" lon="4.47474">
        <ele>238</ele>
        <time>2021-09-06T09:10:25Z</time>
      </trkpt>
      <trkpt lat="44.25661" lon="4.47446">
        <ele>234</ele>
        <time>2021-09-06T09:10:31Z</time>
      </trkpt>
      <trkpt lat="44.25648" lon="4.47447">
        <ele>234</ele>
        <time>2021-09-06T09:10:35Z</time>
      </trkpt>
      <trkpt lat="44.25622" lon="4.47493">
        <ele>240</ele>
        <time>2021-09-06T09:10:44Z</time>
      </trkpt>
      <trkpt lat="44.25596" lon="4.47546">
        <ele>247</ele>
        <time>2021-09-06T09:10:55Z</time>
      </trkpt>
      <trkpt lat="44.25562" lon="4.47595">
        <ele>251</ele>
        <time>2021-09-06T09:11:06Z</time>
      </trkpt>
      <trkpt lat="44.25517" lon="4.47639">
        <ele>252</ele>
        <time>2021-09-06T09:11:19Z</time>
      </trkpt>
      <trkpt lat="44.25489" lon="4.47666">
        <ele>254</ele>
        <time>2021-09-06T09:11:27Z</time>
      </trkpt>
      <trkpt lat="44.25451" lon="4.47659">
        <ele>252</ele>
        <time>2021-09-06T09:11:36Z</time>
      </trkpt>
      <trkpt lat="44.25422" lon="4.47665">
        <ele>252</ele>
        <time>2021-09-06T09:11:43Z</time>
      </trkpt>
      <trkpt lat="44.2539" lon="4.47667">
        <ele>255</ele>
        <time>2021-09-06T09:11:51Z</time>
      </trkpt>
      <trkpt lat="44.25348" lon="4.47677">
        <ele>260</ele>
        <time>2021-09-06T09:12:00Z</time>
      </trkpt>
      <trkpt lat="44.25314" lon="4.47678">
        <ele>264</ele>
        <time>2021-09-06T09:12:08Z</time>
      </trkpt>
      <trkpt lat="44.25288" lon="4.47661">
        <ele>266</ele>
        <time>2021-09-06T09:12:15Z</time>
      </trkpt>
      <trkpt lat="44.25264" lon="4.47634">
        <ele>267</ele>
        <time>2021-09-06T09:12:22Z</time>
      </trkpt>
      <trkpt lat="44.25237" lon="4.47613">
        <ele>269</ele>
        <time>2021-09-06T09:12:30Z</time>
      </trkpt>
      <trkpt lat="44.25212" lon="4.47592">
        <ele>271</ele>
        <time>2021-09-06T09:12:36Z</time>
      </trkpt>
      <trkpt lat="44.25204" lon="4.47555">
        <ele>270</ele>
        <time>2021-09-06T09:12:43Z</time>
      </trkpt>
      <trkpt lat="44.25215" lon="4.47535">
        <ele>268</ele>
        <time>2021-09-06T09:12:47Z</time>
      </trkpt>
      <trkpt lat="44.25216" lon="4.4751">
        <ele>267</ele>
        <time>2021-09-06T09:12:51Z</time>
      </trkpt>
      <trkpt lat="44.25195" lon="4.47477">
        <ele>268</ele>
        <time>2021-09-06T09:12:59Z</time>
      </trkpt>
      <trkpt lat="44.25163" lon="4.47453">
        <ele>270</ele>
        <time>2021-09-06T09:13:07Z</time>
      </trkpt>
      <trkpt lat="44.2514" lon="4.47421">
        <ele>270</ele>
        <time>2021-09-06T09:13:15Z</time>
      </trkpt>
      <trkpt lat="44.25126" lon="4.47386">
        <ele>267</ele>
        <time>2021-09-06T09:13:21Z</time>
      </trkpt>
      <trkpt lat="44.25104" lon="4.4738">
        <ele>268</ele>
        <time>2021-09-06T09:13:27Z</time>
      </trkpt>
      <trkpt lat="44.25094" lon="4.4737">
        <ele>267</ele>
        <time>2021-09-06T09:13:29Z</time>
      </trkpt>
      <trkpt lat="44.25083" lon="4.47359">
        <ele>266</ele>
        <time>2021-09-06T09:13:33Z</time>
      </trkpt>
      <trkpt lat="44.25058" lon="4.47366">
        <ele>271</ele>
        <time>2021-09-06T09:13:39Z</time>
      </trkpt>
      <trkpt lat="44.25042" lon="4.47368">
        <ele>273</ele>
        <time>2021-09-06T09:13:42Z</time>
      </trkpt>
      <trkpt lat="44.25029" lon="4.47345">
        <ele>272</ele>
        <time>2021-09-06T09:13:47Z</time>
      </trkpt>
      <trkpt lat="44.25025" lon="4.47334">
        <ele>272</ele>
        <time>2021-09-06T09:13:49Z</time>
      </trkpt>
      <trkpt lat="44.25001" lon="4.47325">
        <ele>274</ele>
        <time>2021-09-06T09:13:55Z</time>
      </trkpt>
      <trkpt lat="44.24992" lon="4.47321">
        <ele>274</ele>
        <time>2021-09-06T09:13:57Z</time>
      </trkpt>
      <trkpt lat="44.24987" lon="4.47306">
        <ele>272</ele>
        <time>2021-09-06T09:14:00Z</time>
      </trkpt>
      <trkpt lat="44.24955" lon="4.47299">
        <ele>273</ele>
        <time>2021-09-06T09:14:08Z</time>
      </trkpt>
      <trkpt lat="44.24938" lon="4.47291">
        <ele>273</ele>
        <time>2021-09-06T09:14:12Z</time>
      </trkpt>
      <trkpt lat="44.249" lon="4.47286">
        <ele>276</ele>
        <time>2021-09-06T09:14:21Z</time>
      </trkpt>
      <trkpt lat="44.24878" lon="4.4728">
        <ele>278</ele>
        <time>2021-09-06T09:14:26Z</time>
      </trkpt>
      <trkpt lat="44.24854" lon="4.47276">
        <ele>281</ele>
        <time>2021-09-06T09:14:32Z</time>
      </trkpt>
      <trkpt lat="44.24826" lon="4.47257">
        <ele>282</ele>
        <time>2021-09-06T09:14:39Z</time>
      </trkpt>
      <trkpt lat="44.24798" lon="4.47238">
        <ele>279</ele>
        <time>2021-09-06T09:14:46Z</time>
      </trkpt>
      <trkpt lat="44.24775" lon="4.4719">
        <ele>274</ele>
        <time>2021-09-06T09:14:56Z</time>
      </trkpt>
      <trkpt lat="44.24751" lon="4.47169">
        <ele>274</ele>
        <time>2021-09-06T09:15:02Z</time>
      </trkpt>
      <trkpt lat="44.24714" lon="4.47146">
        <ele>271</ele>
        <time>2021-09-06T09:15:12Z</time>
      </trkpt>
      <trkpt lat="44.24701" lon="4.47129">
        <ele>270</ele>
        <time>2021-09-06T09:15:16Z</time>
      </trkpt>
      <trkpt lat="44.24682" lon="4.47086">
        <ele>267</ele>
        <time>2021-09-06T09:15:25Z</time>
      </trkpt>
      <trkpt lat="44.24627" lon="4.47078">
        <ele>261</ele>
        <time>2021-09-06T09:15:37Z</time>
      </trkpt>
      <trkpt lat="44.24586" lon="4.47081">
        <ele>255</ele>
        <time>2021-09-06T09:15:47Z</time>
      </trkpt>
      <trkpt lat="44.2458" lon="4.47083">
        <ele>255</ele>
        <time>2021-09-06T09:15:48Z</time>
      </trkpt>
      <trkpt lat="44.2459" lon="4.47096">
        <ele>255</ele>
        <time>2021-09-06T09:15:52Z</time>
      </trkpt>
      <trkpt lat="44.2457" lon="4.47128">
        <ele>251</ele>
        <time>2021-09-06T09:15:59Z</time>
      </trkpt>
      <trkpt lat="44.24551" lon="4.47149">
        <ele>247</ele>
        <time>2021-09-06T09:16:04Z</time>
      </trkpt>
      <trkpt lat="44.24542" lon="4.47162">
        <ele>244</ele>
        <time>2021-09-06T09:16:07Z</time>
      </trkpt>
      <trkpt lat="44.24528" lon="4.47167">
        <ele>242</ele>
        <time>2021-09-06T09:16:11Z</time>
      </trkpt>
      <trkpt lat="44.24525" lon="4.47199">
        <ele>241</ele>
        <time>2021-09-06T09:16:16Z</time>
      </trkpt>
      <trkpt lat="44.24514" lon="4.47208">
        <ele>240</ele>
        <time>2021-09-06T09:16:19Z</time>
      </trkpt>
      <trkpt lat="44.24486" lon="4.47211">
        <ele>236</ele>
        <time>2021-09-06T09:16:26Z</time>
      </trkpt>
      <trkpt lat="44.24462" lon="4.47222">
        <ele>233</ele>
        <time>2021-09-06T09:16:32Z</time>
      </trkpt>
      <trkpt lat="44.24428" lon="4.4719">
        <ele>227</ele>
        <time>2021-09-06T09:16:41Z</time>
      </trkpt>
      <trkpt lat="44.24408" lon="4.47181">
        <ele>222</ele>
        <time>2021-09-06T09:16:46Z</time>
      </trkpt>
      <trkpt lat="44.24381" lon="4.47175">
        <ele>217</ele>
        <time>2021-09-06T09:16:53Z</time>
      </trkpt>
      <trkpt lat="44.24355" lon="4.47143">
        <ele>211</ele>
        <time>2021-09-06T09:17:01Z</time>
      </trkpt>
      <trkpt lat="44.24341" lon="4.47123">
        <ele>206</ele>
        <time>2021-09-06T09:17:05Z</time>
      </trkpt>
      <trkpt lat="44.24336" lon="4.47089">
        <ele>202</ele>
        <time>2021-09-06T09:17:11Z</time>
      </trkpt>
      <trkpt lat="44.24309" lon="4.4702">
        <ele>191</ele>
        <time>2021-09-06T09:17:24Z</time>
      </trkpt>
      <trkpt lat="44.24296" lon="4.46995">
        <ele>185</ele>
        <time>2021-09-06T09:17:29Z</time>
      </trkpt>
      <trkpt lat="44.24289" lon="4.46972">
        <ele>180</ele>
        <time>2021-09-06T09:17:34Z</time>
      </trkpt>
      <trkpt lat="44.24299" lon="4.46902">
        <ele>173</ele>
        <time>2021-09-06T09:17:46Z</time>
      </trkpt>
      <trkpt lat="44.24264" lon="4.4694">
        <ele>169</ele>
        <time>2021-09-06T09:17:56Z</time>
      </trkpt>
      <trkpt lat="44.24262" lon="4.46892">
        <ele>163</ele>
        <time>2021-09-06T09:18:04Z</time>
      </trkpt>
      <trkpt lat="44.24266" lon="4.46859">
        <ele>159</ele>
        <time>2021-09-06T09:18:10Z</time>
      </trkpt>
      <trkpt lat="44.24284" lon="4.46838">
        <ele>160</ele>
        <time>2021-09-06T09:18:15Z</time>
      </trkpt>
      <trkpt lat="44.24274" lon="4.46808">
        <ele>154</ele>
        <time>2021-09-06T09:18:21Z</time>
      </trkpt>
      <trkpt lat="44.24248" lon="4.46797">
        <ele>147</ele>
        <time>2021-09-06T09:18:27Z</time>
      </trkpt>
      <trkpt lat="44.24223" lon="4.46766">
        <ele>142</ele>
        <time>2021-09-06T09:18:35Z</time>
      </trkpt>
      <trkpt lat="44.24207" lon="4.46721">
        <ele>137</ele>
        <time>2021-09-06T09:18:43Z</time>
      </trkpt>
      <trkpt lat="44.24165" lon="4.46675">
        <ele>132</ele>
        <time>2021-09-06T09:18:56Z</time>
      </trkpt>
      <trkpt lat="44.24134" lon="4.46644">
        <ele>131</ele>
        <time>2021-09-06T09:19:04Z</time>
      </trkpt>
      <trkpt lat="44.24106" lon="4.46624">
        <ele>130</ele>
        <time>2021-09-06T09:19:12Z</time>
      </trkpt>
      <trkpt lat="44.24098" lon="4.46599">
        <ele>129</ele>
        <time>2021-09-06T09:19:16Z</time>
      </trkpt>
      <trkpt lat="44.24104" lon="4.46544">
        <ele>126</ele>
        <time>2021-09-06T09:19:26Z</time>
      </trkpt>
      <trkpt lat="44.24069" lon="4.46519">
        <ele>126</ele>
        <time>2021-09-06T09:19:35Z</time>
      </trkpt>
      <trkpt lat="44.24068" lon="4.46476">
        <ele>125</ele>
        <time>2021-09-06T09:19:42Z</time>
      </trkpt>
      <trkpt lat="44.24074" lon="4.46402">
        <ele>121</ele>
        <time>2021-09-06T09:19:55Z</time>
      </trkpt>
      <trkpt lat="44.24062" lon="4.46345">
        <ele>120</ele>
        <time>2021-09-06T09:20:05Z</time>
      </trkpt>
      <trkpt lat="44.24074" lon="4.46297">
        <ele>118</ele>
        <time>2021-09-06T09:20:13Z</time>
      </trkpt>
      <trkpt lat="44.2408" lon="4.46239">
        <ele>116</ele>
        <time>2021-09-06T09:20:23Z</time>
      </trkpt>
      <trkpt lat="44.24096" lon="4.46115">
        <ele>112</ele>
        <time>2021-09-06T09:20:44Z</time>
      </trkpt>
      <trkpt lat="44.2408" lon="4.46071">
        <ele>110</ele>
        <time>2021-09-06T09:20:52Z</time>
      </trkpt>
      <trkpt lat="44.24067" lon="4.46029">
        <ele>107</ele>
        <time>2021-09-06T09:21:00Z</time>
      </trkpt>
      <trkpt lat="44.24051" lon="4.46004">
        <ele>105</ele>
        <time>2021-09-06T09:21:05Z</time>
      </trkpt>
      <trkpt lat="44.24106" lon="4.45871">
        <ele>102</ele>
        <time>2021-09-06T09:21:31Z</time>
      </trkpt>
      <trkpt lat="44.24038" lon="4.45835">
        <ele>107</ele>
        <time>2021-09-06T09:21:48Z</time>
      </trkpt>
      <trkpt lat="44.24037" lon="4.45831">
        <ele>108</ele>
        <time>2021-09-06T09:21:49Z</time>
      </trkpt>
      <trkpt lat="44.24044" lon="4.45802">
        <ele>110</ele>
        <time>2021-09-06T09:21:54Z</time>
      </trkpt>
      <trkpt lat="44.24044" lon="4.45745">
        <ele>115</ele>
        <time>2021-09-06T09:22:03Z</time>
      </trkpt>
      <trkpt lat="44.2404" lon="4.45724">
        <ele>116</ele>
        <time>2021-09-06T09:22:07Z</time>
      </trkpt>
      <trkpt lat="44.24026" lon="4.45719">
        <ele>117</ele>
        <time>2021-09-06T09:22:10Z</time>
      </trkpt>
      <trkpt lat="44.23993" lon="4.45722">
        <ele>118</ele>
        <time>2021-09-06T09:22:18Z</time>
      </trkpt>
      <trkpt lat="44.23938" lon="4.45756">
        <ele>117</ele>
        <time>2021-09-06T09:22:32Z</time>
      </trkpt>
      <trkpt lat="44.23915" lon="4.45776">
        <ele>116</ele>
        <time>2021-09-06T09:22:39Z</time>
      </trkpt>
    </trkseg>
  </trk>
</gpx>